createdAt,value
2023-08-25T05:40:01.363Z,21.00
2023-08-25T05:48:26.852Z,21.20
2023-08-25T05:50:54.269Z,21.20
2023-08-25T05:53:21.776Z,21.40
2023-08-25T05:55:51.738Z,21.40
2023-08-25T06:32:49.073Z,21.50
2023-08-25T06:48:03.786Z,21.60
2023-08-25T06:50:31.742Z,21.60
2023-08-25T07:06:02.328Z,21.60
2023-08-25T07:08:29.792Z,21.70
2023-08-25T07:18:05.062Z,21.80
2023-08-25T07:20:32.665Z,21.80
2023-08-25T07:23:00.478Z,21.80
2023-08-25T07:25:28.090Z,21.80
2023-08-25T07:27:55.821Z,21.90
2023-08-25T07:30:23.680Z,21.90
2023-08-25T07:32:54.227Z,22.00
2023-08-25T07:35:21.784Z,22.10
2023-08-25T07:37:50.921Z,22.20
2023-08-25T07:40:20.772Z,22.30
2023-08-25T07:42:49.903Z,22.40
2023-08-25T07:45:17.602Z,22.50
2023-08-25T07:47:45.186Z,22.50
2023-08-25T07:50:12.641Z,22.50
2023-08-25T07:52:40.174Z,22.60
2023-08-25T07:55:08.156Z,22.70
2023-08-25T07:57:36.548Z,22.70
2023-08-25T08:00:07.438Z,22.70
2023-08-25T08:02:34.963Z,22.80
2023-08-25T08:05:02.401Z,22.90
2023-08-25T08:07:29.933Z,23.00
2023-08-25T08:09:57.390Z,23.00
2023-08-25T08:12:24.812Z,23.00
2023-08-25T08:14:52.272Z,23.10
2023-08-25T08:17:21.492Z,23.20
2023-08-25T08:19:49.462Z,23.30
2023-08-25T08:22:18.611Z,23.30
2023-08-25T08:24:51.083Z,23.40
2023-08-25T08:27:20.294Z,23.50
2023-08-25T08:29:49.195Z,23.50
2023-08-25T08:32:17.732Z,23.60
2023-08-25T08:34:45.659Z,23.60
2023-08-25T08:37:13.177Z,23.60
2023-08-25T08:39:40.682Z,23.70
2023-08-25T08:42:11.382Z,23.70
2023-08-25T08:44:41.432Z,23.80
2023-08-25T08:47:10.912Z,23.80
2023-08-25T08:49:39.473Z,23.80
2023-08-25T08:52:08.160Z,23.80
2023-08-25T08:54:42.775Z,23.90
2023-08-25T08:57:10.330Z,24.00
2023-08-25T08:59:37.802Z,24.00
2023-08-25T09:02:06.653Z,24.10
2023-08-25T09:04:38.735Z,24.10
2023-08-25T09:07:08.184Z,24.20
2023-08-25T09:09:35.723Z,24.20
2023-08-25T09:12:03.542Z,24.20
2023-08-25T09:14:31.527Z,24.30
2023-08-25T09:17:03.455Z,24.30
2023-08-25T09:19:33.699Z,24.40
2023-08-25T09:22:02.754Z,24.40
2023-08-25T09:24:31.697Z,24.50
2023-08-25T09:26:59.222Z,24.60
2023-08-25T09:29:27.698Z,24.60
2023-08-25T09:31:55.205Z,24.60
2023-08-25T09:34:23.201Z,24.60
2023-08-25T09:36:57.852Z,24.70
2023-08-25T09:39:26.073Z,24.70
2023-08-25T09:41:53.693Z,24.80
2023-08-25T09:44:21.155Z,24.80
2023-08-25T09:46:51.336Z,24.80
2023-08-25T09:49:18.837Z,24.90
2023-08-25T09:51:49.651Z,24.90
2023-08-25T09:54:20.269Z,25.00
2023-08-25T09:56:49.415Z,25.00
2023-08-25T09:59:17.822Z,25.00
2023-08-25T10:01:47.143Z,25.00
2023-08-25T10:04:15.142Z,25.10
2023-08-25T10:06:42.928Z,25.10
2023-08-25T10:09:10.874Z,25.10
2023-08-25T10:11:49.824Z,25.10
2023-08-25T10:14:18.457Z,25.10
2023-08-25T10:16:54.015Z,25.10
2023-08-25T10:19:32.773Z,25.20
2023-08-25T10:22:03.173Z,25.30
2023-08-25T10:24:32.971Z,25.30
2023-08-25T10:27:01.380Z,25.40
2023-08-25T10:29:30.216Z,25.40
2023-08-25T10:32:04.195Z,25.40
2023-08-25T10:34:47.442Z,25.40
2023-08-25T10:37:25.813Z,25.40
2023-08-25T10:40:00.844Z,25.40
2023-08-25T10:42:35.135Z,25.50
2023-08-25T10:45:12.394Z,25.50
2023-08-25T10:47:48.828Z,25.60
2023-08-25T10:50:23.857Z,25.60
2023-08-25T10:52:54.063Z,25.70
2023-08-25T10:55:31.161Z,25.70
2023-08-25T10:58:08.532Z,25.80
2023-08-25T11:00:44.870Z,25.80
2023-08-25T11:03:12.841Z,25.80
2023-08-25T11:05:45.207Z,25.80
2023-08-25T11:08:29.750Z,25.80
2023-08-25T11:11:16.546Z,25.80
2023-08-25T11:13:44.730Z,25.80
2023-08-25T11:16:14.721Z,25.90
2023-08-25T11:18:44.251Z,25.80
2023-08-25T11:21:12.279Z,25.90
2023-08-25T11:23:43.826Z,25.90
2023-08-25T11:26:18.971Z,25.90
2023-08-25T11:28:52.244Z,25.90
2023-08-25T11:31:24.938Z,25.80
2023-08-25T11:33:53.929Z,25.80
2023-08-25T11:36:26.311Z,25.80
2023-08-25T11:38:54.220Z,25.80
2023-08-25T11:41:24.392Z,25.70
2023-08-25T11:43:51.865Z,25.70
2023-08-25T11:46:20.499Z,25.70
2023-08-25T11:48:54.932Z,25.60
2023-08-25T11:51:22.401Z,25.70
2023-08-25T11:53:49.987Z,25.70
2023-08-25T11:56:20.788Z,25.70
2023-08-25T11:58:51.808Z,25.70
2023-08-25T12:01:19.422Z,25.70
2023-08-25T12:03:48.396Z,25.80
2023-08-25T12:06:16.679Z,25.80
2023-08-25T12:08:44.171Z,25.80
2023-08-25T12:11:12.227Z,25.80
2023-08-25T12:13:48.676Z,25.90
2023-08-25T12:16:20.192Z,25.90
2023-08-25T12:18:53.331Z,25.90
2023-08-25T12:21:21.012Z,26.00
2023-08-25T12:23:48.498Z,26.00
2023-08-25T12:26:15.956Z,26.10
2023-08-25T12:28:44.758Z,26.10
2023-08-25T12:31:12.386Z,26.20
2023-08-25T12:33:39.989Z,26.20
2023-08-25T12:36:08.080Z,26.20
2023-08-25T12:38:35.556Z,26.20
2023-08-25T12:41:03.282Z,26.20
2023-08-25T12:43:30.803Z,26.20
2023-08-25T12:45:58.547Z,26.20
2023-08-25T12:48:25.994Z,26.30
2023-08-25T12:50:53.558Z,26.20
2023-08-25T12:53:21.467Z,26.20
2023-08-25T12:55:48.998Z,26.20
2023-08-25T12:58:16.631Z,26.20
2023-08-25T13:00:44.286Z,26.20
2023-08-25T13:03:11.932Z,26.20
2023-08-25T13:05:39.642Z,26.20
2023-08-25T13:08:07.321Z,26.20
2023-08-25T13:10:34.812Z,26.20
2023-08-25T13:13:02.271Z,26.10
2023-08-25T13:15:32.225Z,26.20
2023-08-25T13:18:01.272Z,26.20
2023-08-25T13:20:29.222Z,26.20
2023-08-25T13:22:57.617Z,26.20
2023-08-25T13:25:26.359Z,26.20
2023-08-25T13:27:55.192Z,26.30
2023-08-25T13:30:23.628Z,26.30
2023-08-25T13:32:52.073Z,26.30
2023-08-25T13:35:19.737Z,26.30
2023-08-25T13:37:47.197Z,26.40
2023-08-25T13:40:14.715Z,26.40
2023-08-25T13:42:42.262Z,26.40
2023-08-25T13:45:11.020Z,26.50
2023-08-25T13:47:38.665Z,26.50
2023-08-25T13:50:07.783Z,26.50
2023-08-25T13:52:35.827Z,26.50
2023-08-25T13:55:04.190Z,26.40
2023-08-25T13:57:32.391Z,26.50
2023-08-25T14:00:00.501Z,26.50
2023-08-25T14:02:28.138Z,26.50
2023-08-25T14:04:55.753Z,26.50
2023-08-25T14:07:23.249Z,26.50
2023-08-25T14:09:50.961Z,26.40
2023-08-25T14:12:18.906Z,26.40
2023-08-25T14:14:47.035Z,26.40
2023-08-25T14:17:14.833Z,26.50
2023-08-25T14:19:42.368Z,26.40
2023-08-25T14:22:09.873Z,26.40
2023-08-25T14:24:37.742Z,26.40
2023-08-25T14:27:05.435Z,26.40
2023-08-25T14:29:32.965Z,26.40
2023-08-25T14:32:00.443Z,26.40
2023-08-25T14:34:30.218Z,26.40
2023-08-25T14:36:57.859Z,26.40
2023-08-25T14:39:25.374Z,26.40
2023-08-25T14:41:58.249Z,26.40
2023-08-25T14:44:26.379Z,26.40
2023-08-25T14:46:54.025Z,26.40
2023-08-25T14:49:21.611Z,26.40
2023-08-25T14:51:49.164Z,26.40
2023-08-25T14:54:16.809Z,26.40
2023-08-25T14:56:44.294Z,26.30
2023-08-25T14:59:11.960Z,26.40
2023-08-25T15:01:39.636Z,26.30
2023-08-25T15:04:07.640Z,26.40
2023-08-25T15:06:35.218Z,26.40
2023-08-25T15:09:02.748Z,26.40
2023-08-25T15:11:30.291Z,26.50
2023-08-25T15:13:57.988Z,26.50
2023-08-25T15:16:25.602Z,26.50
2023-08-25T15:18:53.192Z,26.50
2023-08-25T15:21:20.775Z,26.40
2023-08-25T15:23:49.533Z,26.40
2023-08-25T15:26:17.310Z,26.40
2023-08-25T15:28:44.813Z,26.20
2023-08-25T15:31:14.460Z,26.20
2023-08-25T15:33:42.875Z,26.20
2023-08-25T15:36:13.450Z,26.20
2023-08-25T15:38:41.377Z,26.20
2023-08-25T15:41:13.959Z,26.20
2023-08-25T15:43:42.326Z,26.10
2023-08-25T15:46:10.275Z,26.10
2023-08-25T15:48:37.928Z,26.10
2023-08-25T15:51:06.619Z,26.20
2023-08-25T15:53:34.117Z,26.10
2023-08-25T15:56:02.279Z,26.10
2023-08-25T15:58:29.832Z,26.00
2023-08-25T16:01:02.963Z,25.90
2023-08-25T16:03:31.384Z,25.80
2023-08-25T16:06:06.597Z,25.80
2023-08-25T16:08:34.501Z,25.80
2023-08-25T16:11:11.330Z,25.80
2023-08-25T16:13:39.737Z,25.70
2023-08-25T16:16:07.573Z,25.70
2023-08-25T16:18:36.435Z,25.70
2023-08-25T16:21:06.603Z,25.70
2023-08-25T16:23:37.183Z,25.70
2023-08-25T16:26:05.726Z,25.70
2023-08-25T16:28:34.393Z,25.60
2023-08-25T16:31:05.590Z,25.60
2023-08-25T16:33:37.024Z,25.60
2023-08-25T16:36:05.591Z,25.50
2023-08-25T16:38:33.806Z,25.50
2023-08-25T16:41:01.301Z,25.40
2023-08-25T16:43:28.857Z,25.40
2023-08-25T16:45:56.334Z,25.30
2023-08-25T16:48:24.121Z,25.30
2023-08-25T16:50:52.214Z,25.10
2023-08-25T16:53:20.884Z,25.10
2023-08-25T16:55:48.406Z,25.00
2023-08-25T16:58:15.964Z,25.10
2023-08-25T17:00:44.721Z,25.10
2023-08-25T17:03:12.626Z,25.10
2023-08-25T17:05:40.189Z,25.10
2023-08-25T17:08:09.514Z,25.10
2023-08-25T17:10:37.665Z,25.10
2023-08-25T17:13:05.450Z,25.00
2023-08-25T17:15:38.290Z,25.00
2023-08-25T17:18:06.624Z,25.00
2023-08-25T17:20:34.296Z,25.00
2023-08-25T17:23:01.965Z,25.00
2023-08-25T17:25:30.558Z,25.00
2023-08-25T17:27:58.679Z,25.00
2023-08-25T17:30:26.223Z,25.00
2023-08-25T17:32:55.337Z,24.90
2023-08-25T17:35:23.047Z,24.90
2023-08-25T17:37:50.839Z,24.80
2023-08-25T17:40:18.346Z,24.80
2023-08-25T17:42:45.813Z,24.80
2023-08-25T17:45:13.324Z,24.80
2023-08-25T17:47:40.878Z,24.80
2023-08-25T17:50:09.021Z,24.80
2023-08-25T17:52:36.523Z,24.80
2023-08-25T17:55:04.521Z,24.70
2023-08-25T17:57:33.440Z,24.70
2023-08-25T18:00:01.269Z,24.60
2023-08-25T18:02:28.806Z,24.60
2023-08-25T18:04:56.304Z,24.60
2023-08-25T18:07:23.816Z,24.50
2023-08-25T18:09:51.564Z,24.60
2023-08-25T18:12:19.083Z,24.50
2023-08-25T18:14:46.529Z,24.50
2023-08-25T18:17:14.055Z,24.50
2023-08-25T18:19:41.485Z,24.50
2023-08-25T18:22:09.083Z,24.50
2023-08-25T18:24:38.246Z,24.50
2023-08-25T18:27:06.128Z,24.50
2023-08-25T18:29:33.590Z,24.50
2023-08-25T18:32:02.729Z,24.50
2023-08-25T18:34:30.518Z,24.50
2023-08-25T18:36:58.051Z,24.40
2023-08-25T18:39:25.698Z,24.40
2023-08-25T18:41:53.196Z,24.30
2023-08-25T18:44:20.781Z,24.30
2023-08-25T18:46:48.248Z,24.30
2023-08-25T18:49:15.749Z,24.30
2023-08-25T18:51:45.002Z,24.30
2023-08-25T18:54:12.525Z,24.20
2023-08-25T18:56:39.982Z,24.20
2023-08-25T18:59:07.472Z,24.20
2023-08-25T19:01:35.289Z,24.10
2023-08-25T19:04:04.018Z,24.10
2023-08-25T19:06:31.588Z,24.10
2023-08-25T19:08:59.029Z,24.10
2023-08-25T19:11:26.803Z,24.10
2023-08-25T19:13:54.546Z,24.00
2023-08-25T19:16:22.176Z,24.00
2023-08-25T19:18:49.849Z,23.90
2023-08-25T19:21:17.513Z,23.90
2023-08-25T19:23:44.990Z,23.90
2023-08-25T19:26:15.015Z,23.90
2023-08-25T19:28:43.344Z,23.90
2023-08-25T19:31:17.373Z,23.90
2023-08-25T19:33:45.613Z,23.80
2023-08-25T19:36:15.826Z,23.80
2023-08-25T19:38:43.823Z,23.70
2023-08-25T19:41:11.571Z,23.70
2023-08-25T19:43:41.112Z,23.70
2023-08-25T19:46:08.617Z,23.70
2023-08-25T19:48:41.961Z,23.70
2023-08-25T19:51:09.685Z,23.70
2023-08-25T19:53:39.433Z,23.70
2023-08-25T19:56:07.688Z,23.60
2023-08-25T19:58:35.177Z,23.60
2023-08-25T20:01:04.141Z,23.60
2023-08-25T20:03:31.912Z,23.50
2023-08-25T20:06:06.519Z,23.50
2023-08-25T20:08:39.389Z,23.50
2023-08-25T20:11:09.615Z,23.60
2023-08-25T20:13:37.698Z,23.50
2023-08-25T20:16:06.265Z,23.50
2023-08-25T20:18:34.973Z,23.50
2023-08-25T20:21:02.716Z,23.50
2023-08-25T20:23:30.210Z,23.50
2023-08-25T20:25:57.740Z,23.50
2023-08-25T20:28:25.512Z,23.50
2023-08-25T20:30:53.508Z,23.50
2023-08-25T20:33:22.420Z,23.50
2023-08-25T20:35:51.186Z,23.50
2023-08-25T20:38:18.689Z,23.40
2023-08-25T20:40:47.811Z,23.50
2023-08-25T20:43:15.288Z,23.40
2023-08-25T20:45:48.681Z,23.50
2023-08-25T20:48:17.131Z,23.50
2023-08-25T20:50:50.858Z,23.40
2023-08-25T20:53:19.022Z,23.30
2023-08-25T20:55:46.623Z,23.30
2023-08-25T20:58:14.090Z,23.40
2023-08-25T21:00:41.512Z,23.30
2023-08-25T21:03:09.050Z,23.30
2023-08-25T21:05:36.651Z,23.30
2023-08-25T21:08:04.447Z,23.30
2023-08-25T21:10:31.913Z,23.30
2023-08-25T21:13:00.348Z,23.30
2023-08-25T21:15:28.420Z,23.20
2023-08-25T21:17:55.962Z,23.20
2023-08-25T21:20:26.120Z,23.20
2023-08-25T21:22:54.903Z,23.20
2023-08-25T21:25:22.654Z,23.10
2023-08-25T21:27:50.083Z,23.10
2023-08-25T21:30:17.733Z,23.10
2023-08-25T21:32:45.472Z,23.10
2023-08-25T21:35:12.976Z,23.10
2023-08-25T21:37:40.529Z,23.10
2023-08-25T21:40:09.657Z,23.10
2023-08-25T21:42:37.101Z,23.10
2023-08-25T21:45:05.175Z,23.10
2023-08-25T21:47:32.746Z,23.10
2023-08-25T21:50:03.367Z,23.00
2023-08-25T21:52:31.173Z,23.00
2023-08-25T21:54:58.622Z,23.00
